Terminal Aerodrome Forecast
Issued by NWS

Home | Current Version | Previous Version | Graphics & Text | Print | Product List | Glossary On
Versions: 1 2 3 4 5 6 7 8 9 10 11 12 13 14 15 16 17 18 19 20 21
262
FTUS43 KABR 251527 AAA
TAFPIR
TAF AMD
KPIR 251527Z 2515/2612 26006KT P6SM SKC
     FM252000 33012KT P6SM SCT100
     FM260200 VRB05KT P6SM SKC
      AMD NOT SKED=

USA.gov is the U.S. government's official web portal to all federal, state and local government web resources and services.